Terminal Aerodrome Forecast
Issued by NWS Wilmington, OH

Current Version | Previous Version | Text Only | Print | Product List | Glossary Off
Versions: 1 2 3 4 5 6 7 8 9 10 11 12 13 14 15 16 17 18 19 20 21 22 23 24 25 26 27

000
FTUS41 KILN 020200 AAA
TAFCVG
TAF AMD
KCVG 020257Z 0203/0306 29007KT 5SM BR BKN005 OVC010
     FM020500 30008KT P6SM OVC012
     FM021400 36005KT P6SM SCT020
      TEMPO 0215/0219 BKN020
     FM030000 07005KT P6SM BKN100=

USA.gov is the U.S. government's official web portal to all federal, state and local government web resources and services.